Time;durP1;ratioP1;P1;durP2;ratioP2;P2;SDS_P1;SDS_P2;PMS_P1;PMS_P2;Temp;Humidity;BMP_temperature;BMP_pressure;BME280_temperature;BME280_humidity;BME280_pressure;Samples;Min_cycle;Max_cycle;Signal;HPM_P1;HPM_P2
2021/04/18 00:01:46;;;;;;;14.40;5.15;;;;;;;;;;5082756;28;32007;-75
2021/04/18 00:04:12;;;;;;;15.63;3.97;;;;;;;;;;5083187;28;31959;-75
2021/04/18 00:06:41;;;;;;;13.50;4.63;;;;;;;;;;5083460;28;32804;-76
2021/04/18 00:09:10;;;;;;;13.23;4.43;;;;;;;;;;5082839;28;32520;-75
2021/04/18 00:11:39;;;;;;;15.30;4.03;;;;;;;;;;5083175;28;32916;-75
2021/04/18 00:14:06;;;;;;;17.60;4.78;;;;;;;;;;5083139;28;32914;-75
2021/04/18 00:16:32;;;;;;;21.08;5.28;;;;;;;;;;5083448;28;32580;-76
2021/04/18 00:18:58;;;;;;;19.10;5.18;;;;;;;;;;5083160;28;32197;-75
2021/04/18 00:21:24;;;;;;;14.95;4.90;;;;;;;;;;5082902;28;32076;-75
2021/04/18 00:23:50;;;;;;;14.98;5.07;;;;;;;;;;5083342;28;33031;-74
2021/04/18 00:26:16;;;;;;;17.17;6.20;;;;;;;;;;5082874;28;32523;-75
2021/04/18 00:28:42;;;;;;;13.30;5.30;;;;;;;;;;5082648;28;32190;-72
2021/04/18 00:31:08;;;;;;;15.40;5.25;;;;;;;;;;5083052;28;31864;-71
2021/04/18 00:33:33;;;;;;;12.98;5.18;;;;;;;;;;5082523;28;33016;-72
2021/04/18 00:35:59;;;;;;;12.85;5.40;;;;;;;;;;5083205;28;32816;-72
2021/04/18 00:38:25;;;;;;;11.13;4.68;;;;;;;;;;5083319;28;32337;-71
2021/04/18 00:40:50;;;;;;;13.13;5.32;;;;;;;;;;5083087;28;32940;-72
2021/04/18 00:43:16;;;;;;;15.10;5.10;;;;;;;;;;5083032;28;32056;-72
2021/04/18 00:45:42;;;;;;;15.43;5.40;;;;;;;;;;5083006;28;32524;-72
2021/04/18 00:48:08;;;;;;;12.88;4.85;;;;;;;;;;5082846;28;33277;-71
2021/04/18 00:50:36;;;;;;;20.58;5.38;;;;;;;;;;5082726;28;32113;-71
2021/04/18 00:53:06;;;;;;;11.52;5.13;;;;;;;;;;5084467;28;32753;-71
2021/04/18 00:55:43;;;;;;;17.02;6.28;;;;;;;;;;5086218;28;33547;-71
2021/04/18 00:58:10;;;;;;;18.98;5.40;;;;;;;;;;5086910;28;32276;-71
2021/04/18 01:00:37;;;;;;;10.93;5.25;;;;;;;;;;5082977;28;32157;-71
2021/04/18 01:03:03;;;;;;;17.17;5.05;;;;;;;;;;5081649;28;30972;-71
2021/04/18 01:05:33;;;;;;;12.95;4.75;;;;;;;;;;5080968;28;31167;-71
2021/04/18 01:08:00;;;;;;;16.48;5.63;;;;;;;;;;5081147;28;30950;-72
2021/04/18 01:10:26;;;;;;;19.80;5.50;;;;;;;;;;5081178;28;30595;-71
2021/04/18 01:12:52;;;;;;;11.98;4.25;;;;;;;;;;5080547;28;32021;-74
2021/04/18 01:15:18;;;;;;;14.55;5.03;;;;;;;;;;5080814;28;31479;-74
2021/04/18 01:17:44;;;;;;;12.32;5.00;;;;;;;;;;5081119;28;31152;-74
2021/04/18 01:20:12;;;;;;;16.58;4.90;;;;;;;;;;5081357;28;30481;-75
2021/04/18 01:22:38;;;;;;;15.40;5.32;;;;;;;;;;5081112;28;30580;-75
2021/04/18 01:25:24;;;;;;;18.05;5.28;;;;;;;;;;5081329;28;32102;-71
2021/04/18 01:27:57;;;;;;;14.05;5.55;;;;;;;;;;5081575;28;32364;-75
2021/04/18 01:30:26;;;;;;;18.33;5.25;;;;;;;;;;5080799;28;30766;-74
2021/04/18 01:32:52;;;;;;;13.93;5.80;;;;;;;;;;5082195;28;32207;-76
2021/04/18 01:35:18;;;;;;;14.30;5.07;;;;;;;;;;5080918;28;33563;-74
2021/04/18 01:37:46;;;;;;;20.15;5.25;;;;;;;;;;5081946;28;32333;-72
2021/04/18 01:40:14;;;;;;;16.92;5.10;;;;;;;;;;5081685;28;32916;-75
2021/04/18 01:42:40;;;;;;;13.93;5.07;;;;;;;;;;5082657;28;32984;-74
2021/04/18 01:45:07;;;;;;;16.27;4.78;;;;;;;;;;5081640;28;32381;-74
2021/04/18 01:47:33;;;;;;;10.93;4.70;;;;;;;;;;5079884;28;32089;-74
2021/04/18 01:49:59;;;;;;;17.98;5.53;;;;;;;;;;5080468;28;31473;-75
2021/04/18 01:52:25;;;;;;;12.07;5.07;;;;;;;;;;5080513;28;30745;-75
2021/04/18 01:54:52;;;;;;;10.60;4.60;;;;;;;;;;5081462;28;32640;-75
2021/04/18 01:57:18;;;;;;;15.50;4.60;;;;;;;;;;5081674;28;32407;-76
2021/04/18 01:59:46;;;;;;;18.65;5.43;;;;;;;;;;5080510;28;30637;-75
2021/04/18 02:02:39;;;;;;;15.90;4.90;;;;;;;;;;5081687;28;32481;-75
2021/04/18 02:05:11;;;;;;;12.10;4.72;;;;;;;;;;5080228;28;32142;-72
2021/04/18 02:07:37;;;;;;;13.60;4.60;;;;;;;;;;5080986;28;32477;-75
2021/04/18 02:10:03;;;;;;;17.23;4.70;;;;;;;;;;5080622;28;32112;-75
2021/04/18 02:12:31;;;;;;;8.85;4.78;;;;;;;;;;5080259;28;30451;-75
2021/04/18 02:14:57;;;;;;;13.43;4.28;;;;;;;;;;5081434;28;33640;-76
2021/04/18 02:17:24;;;;;;;12.05;4.75;;;;;;;;;;5080198;28;31134;-76
2021/04/18 02:19:50;;;;;;;13.85;4.78;;;;;;;;;;5080124;28;30431;-75
2021/04/18 02:22:17;;;;;;;12.85;4.78;;;;;;;;;;5080985;28;32121;-74
2021/04/18 02:24:47;;;;;;;9.38;4.38;;;;;;;;;;5079110;28;31110;-75
2021/04/18 02:27:13;;;;;;;15.18;4.47;;;;;;;;;;5079174;28;30878;-75
2021/04/18 02:29:48;;;;;;;12.95;5.07;;;;;;;;;;5080097;28;30397;-73
2021/04/18 02:32:18;;;;;;;18.08;5.30;;;;;;;;;;5079683;28;30355;-74
2021/04/18 02:34:54;;;;;;;17.10;5.68;;;;;;;;;;5081134;28;32596;-71
2021/04/18 02:37:19;;;;;;;9.65;5.03;;;;;;;;;;5081067;28;32465;-71
2021/04/18 02:39:46;;;;;;;14.43;4.35;;;;;;;;;;5080654;28;32127;-71
2021/04/18 02:42:12;;;;;;;15.48;5.10;;;;;;;;;;5079509;28;31617;-72
2021/04/18 02:44:38;;;;;;;15.55;5.32;;;;;;;;;;5080886;28;33747;-71
2021/04/18 02:47:04;;;;;;;15.05;5.13;;;;;;;;;;5080821;28;33258;-71
2021/04/18 02:49:31;;;;;;;15.30;5.07;;;;;;;;;;5079691;28;31579;-72
2021/04/18 02:51:58;;;;;;;14.25;5.38;;;;;;;;;;5079464;28;30535;-71
2021/04/18 02:54:24;;;;;;;13.23;4.85;;;;;;;;;;5079554;28;32278;-71
2021/04/18 02:56:54;;;;;;;12.45;4.78;;;;;;;;;;5080571;28;31829;-71
2021/04/18 02:59:20;;;;;;;14.05;4.68;;;;;;;;;;5080849;28;32080;-71
2021/04/18 03:01:46;;;;;;;12.07;4.30;;;;;;;;;;5080744;28;32943;-71
2021/04/18 03:04:13;;;;;;;16.05;4.63;;;;;;;;;;5079788;28;31339;-71
2021/04/18 03:06:39;;;;;;;11.07;4.65;;;;;;;;;;5080528;28;32366;-71
2021/04/18 03:09:06;;;;;;;12.50;4.60;;;;;;;;;;5079356;28;31505;-71
2021/04/18 03:11:35;;;;;;;17.60;4.88;;;;;;;;;;5079519;28;31691;-71
2021/04/18 03:14:11;;;;;;;11.25;5.28;;;;;;;;;;5079037;28;31064;-71
2021/04/18 03:16:37;;;;;;;15.48;5.00;;;;;;;;;;5080288;28;33300;-73
2021/04/18 03:19:03;;;;;;;10.55;4.57;;;;;;;;;;5080603;28;31999;-71
2021/04/18 03:21:31;;;;;;;7.05;3.97;;;;;;;;;;5078958;28;30541;-71
2021/04/18 03:23:56;;;;;;;12.68;5.07;;;;;;;;;;5079324;28;31040;-71
2021/04/18 03:26:23;;;;;;;14.27;5.05;;;;;;;;;;5078190;28;30748;-72
2021/04/18 03:28:53;;;;;;;12.88;4.30;;;;;;;;;;5062832;28;30468;-71
2021/04/18 03:31:19;;;;;;;11.00;4.28;;;;;;;;;;5080681;28;32122;-71
2021/04/18 03:33:57;;;;;;;10.40;4.75;;;;;;;;;;5079213;28;31616;-71
2021/04/18 03:36:22;;;;;;;11.50;4.20;;;;;;;;;;5082237;28;31091;-71
2021/04/18 03:38:49;;;;;;;10.05;4.50;;;;;;;;;;5082361;28;31715;-71
2021/04/18 03:41:18;;;;;;;12.02;4.57;;;;;;;;;;5082068;28;30336;-71
2021/04/18 03:43:45;;;;;;;10.23;3.97;;;;;;;;;;5082547;28;31023;-71
2021/04/18 03:46:16;;;;;;;15.90;4.28;;;;;;;;;;5083154;28;32338;-71
2021/04/18 03:48:47;;;;;;;13.00;4.38;;;;;;;;;;5083575;28;32860;-71
2021/04/18 03:51:13;;;;;;;12.70;4.28;;;;;;;;;;5083811;28;32154;-74
2021/04/18 03:53:45;;;;;;;8.48;3.65;;;;;;;;;;5084144;28;33540;-75
2021/04/18 03:56:15;;;;;;;10.20;4.20;;;;;;;;;;5082529;28;30751;-75
2021/04/18 03:58:45;;;;;;;13.65;4.13;;;;;;;;;;5082237;28;30637;-75
2021/04/18 04:01:15;;;;;;;11.75;4.57;;;;;;;;;;5082076;28;30561;-75
2021/04/18 04:03:41;;;;;;;11.35;4.30;;;;;;;;;;5081969;28;32498;-75
2021/04/18 04:06:11;;;;;;;12.57;4.00;;;;;;;;;;5082316;28;30557;-75
2021/04/18 04:08:37;;;;;;;14.35;4.45;;;;;;;;;;5081825;28;30459;-75
2021/04/18 04:11:02;;;;;;;10.15;4.10;;;;;;;;;;5083738;28;32438;-76
2021/04/18 04:13:32;;;;;;;13.82;4.55;;;;;;;;;;5083315;28;33524;-75
2021/04/18 04:16:00;;;;;;;14.82;4.32;;;;;;;;;;5083347;28;33113;-76
2021/04/18 04:18:27;;;;;;;17.27;5.00;;;;;;;;;;5081763;28;31997;-75
2021/04/18 04:21:16;;;;;;;11.10;5.10;;;;;;;;;;5082639;28;32567;-77
2021/04/18 04:23:52;;;;;;;12.77;4.32;;;;;;;;;;5083471;28;32487;-75
2021/04/18 04:26:17;;;;;;;11.80;4.03;;;;;;;;;;5082297;28;33201;-75
2021/04/18 04:28:43;;;;;;;11.40;3.70;;;;;;;;;;5083187;28;31916;-74
2021/04/18 04:31:09;;;;;;;14.00;4.30;;;;;;;;;;5081880;28;32147;-74
2021/04/18 04:33:36;;;;;;;13.15;3.92;;;;;;;;;;5083242;28;32783;-71
2021/04/18 04:36:03;;;;;;;9.05;3.67;;;;;;;;;;5082948;28;32357;-71
2021/04/18 04:38:29;;;;;;;10.52;3.92;;;;;;;;;;5083008;28;31932;-70
2021/04/18 04:40:55;;;;;;;12.63;4.18;;;;;;;;;;5081330;28;30413;-71
2021/04/18 04:43:21;;;;;;;9.55;3.85;;;;;;;;;;5083050;28;32618;-71
2021/04/18 04:45:47;;;;;;;11.77;4.45;;;;;;;;;;5083068;28;38274;-71
2021/04/18 04:48:12;;;;;;;13.40;4.43;;;;;;;;;;5082676;28;31763;-71
2021/04/18 04:50:38;;;;;;;10.88;4.45;;;;;;;;;;5083019;28;32767;-71
2021/04/18 04:53:04;;;;;;;14.90;4.45;;;;;;;;;;5083436;28;32645;-71
2021/04/18 04:55:29;;;;;;;8.93;3.90;;;;;;;;;;5083177;28;32227;-70
2021/04/18 04:57:55;;;;;;;12.32;4.28;;;;;;;;;;5083338;28;32853;-71
2021/04/18 05:00:21;;;;;;;11.23;2.95;;;;;;;;;;5083329;28;33073;-71
2021/04/18 05:02:47;;;;;;;7.05;3.25;;;;;;;;;;5083838;28;31988;-71
2021/04/18 05:05:13;;;;;;;4.35;2.70;;;;;;;;;;5083150;28;32295;-71
2021/04/18 05:07:38;;;;;;;4.47;2.75;;;;;;;;;;5087471;28;32952;-71
2021/04/18 05:10:04;;;;;;;13.27;3.15;;;;;;;;;;5093154;28;33250;-72
2021/04/18 05:12:30;;;;;;;8.10;3.22;;;;;;;;;;5088213;28;33901;-71
2021/04/18 05:14:56;;;;;;;7.75;3.55;;;;;;;;;;5083451;28;32333;-71
2021/04/18 05:17:21;;;;;;;8.60;3.45;;;;;;;;;;5082575;28;31806;-70
2021/04/18 05:19:47;;;;;;;11.98;3.30;;;;;;;;;;5082470;28;31921;-70
2021/04/18 05:22:13;;;;;;;12.95;3.83;;;;;;;;;;5082528;28;33359;-71
2021/04/18 05:24:38;;;;;;;9.98;4.13;;;;;;;;;;5082070;28;32247;-70
2021/04/18 05:27:04;;;;;;;13.57;5.22;;;;;;;;;;5081731;28;31925;-72
2021/04/18 05:29:30;;;;;;;11.95;4.30;;;;;;;;;;5082257;28;31976;-72
2021/04/18 05:31:56;;;;;;;7.65;4.32;;;;;;;;;;5082445;28;32538;-70
2021/04/18 05:34:22;;;;;;;12.73;4.35;;;;;;;;;;5081971;28;32158;-71
2021/04/18 05:36:47;;;;;;;9.63;4.32;;;;;;;;;;5082153;28;32306;-71
2021/04/18 05:39:13;;;;;;;15.43;4.30;;;;;;;;;;5080551;28;31984;-71
2021/04/18 05:41:39;;;;;;;10.10;4.00;;;;;;;;;;5081976;28;32676;-73
2021/04/18 05:44:07;;;;;;;9.93;4.57;;;;;;;;;;5081743;28;32411;-71
2021/04/18 05:46:33;;;;;;;15.00;5.18;;;;;;;;;;5081939;28;32950;-72
2021/04/18 05:48:58;;;;;;;11.55;4.40;;;;;;;;;;5081372;28;33173;-72
2021/04/18 05:51:24;;;;;;;20.00;4.03;;;;;;;;;;5081709;28;32683;-71
2021/04/18 05:53:50;;;;;;;19.63;4.90;;;;;;;;;;5080364;28;31298;-71
2021/04/18 05:56:16;;;;;;;10.85;5.00;;;;;;;;;;5082031;28;32426;-73
2021/04/18 05:58:41;;;;;;;11.23;4.57;;;;;;;;;;5080678;28;32025;-70
2021/04/18 06:01:07;;;;;;;8.80;4.63;;;;;;;;;;5081418;28;32193;-71
2021/04/18 06:03:33;;;;;;;13.35;4.88;;;;;;;;;;5081682;28;33302;-72
2021/04/18 06:05:58;;;;;;;16.42;4.60;;;;;;;;;;5081503;28;32921;-71
2021/04/18 06:08:24;;;;;;;10.35;4.45;;;;;;;;;;5080484;28;30584;-70
2021/04/18 06:10:50;;;;;;;13.40;4.85;;;;;;;;;;5081149;28;33618;-74
2021/04/18 06:13:16;;;;;;;17.00;5.45;;;;;;;;;;5081619;28;32425;-70
2021/04/18 06:15:41;;;;;;;14.20;5.97;;;;;;;;;;5081018;28;31951;-72
2021/04/18 06:18:07;;;;;;;20.25;5.63;;;;;;;;;;5080160;28;30290;-75
2021/04/18 06:20:33;;;;;;;14.45;5.38;;;;;;;;;;5081095;28;32588;-70
2021/04/18 06:22:58;;;;;;;9.93;4.85;;;;;;;;;;5081346;28;32353;-70
2021/04/18 06:25:24;;;;;;;17.05;5.13;;;;;;;;;;5081346;28;32831;-70
2021/04/18 06:27:50;;;;;;;16.92;5.35;;;;;;;;;;5081221;28;31966;-71
2021/04/18 06:30:16;;;;;;;11.80;5.35;;;;;;;;;;5081414;28;33208;-72
2021/04/18 06:32:42;;;;;;;16.33;5.50;;;;;;;;;;5081442;28;32012;-71
2021/04/18 06:35:08;;;;;;;9.32;5.80;;;;;;;;;;5080866;28;32625;-71
2021/04/18 06:37:34;;;;;;;20.80;6.72;;;;;;;;;;5081341;28;32020;-71
2021/04/18 06:40:00;;;;;;;19.48;6.53;;;;;;;;;;5081176;28;33295;-71
2021/04/18 06:42:25;;;;;;;19.88;6.75;;;;;;;;;;5081205;28;32409;-75
2021/04/18 06:44:51;;;;;;;19.23;6.72;;;;;;;;;;5080879;28;32922;-75
2021/04/18 06:47:17;;;;;;;18.67;6.30;;;;;;;;;;5081224;28;32013;-75
2021/04/18 06:49:43;;;;;;;16.05;5.82;;;;;;;;;;5080722;28;33559;-75
2021/04/18 06:52:11;;;;;;;14.70;6.88;;;;;;;;;;5081287;28;32310;-73
2021/04/18 06:54:36;;;;;;;17.20;6.32;;;;;;;;;;5080849;28;32027;-76
2021/04/18 06:57:02;;;;;;;16.80;6.22;;;;;;;;;;5080891;28;31878;-74
2021/04/18 06:59:28;;;;;;;26.13;7.07;;;;;;;;;;5081130;28;32738;-76
2021/04/18 07:01:53;;;;;;;19.27;6.88;;;;;;;;;;5080646;28;32253;-76
2021/04/18 07:04:20;;;;;;;17.13;7.47;;;;;;;;;;5080870;28;31893;-76
2021/04/18 07:06:53;;;;;;;25.15;7.70;;;;;;;;;;5080567;28;33049;-75
2021/04/18 07:09:19;;;;;;;23.52;6.95;;;;;;;;;;5080534;28;32512;-76
2021/04/18 07:11:51;;;;;;;20.63;7.00;;;;;;;;;;5084261;28;32314;-72
2021/04/18 07:14:21;;;;;;;24.10;8.40;;;;;;;;;;5082967;28;30420;-76
2021/04/18 07:16:47;;;;;;;19.98;9.75;;;;;;;;;;5084389;28;33049;-76
2021/04/18 07:19:22;;;;;;;23.30;8.57;;;;;;;;;;5084127;28;32539;-75
2021/04/18 07:21:50;;;;;;;16.40;7.65;;;;;;;;;;5083637;28;32306;-76
2021/04/18 07:24:16;;;;;;;17.58;7.43;;;;;;;;;;5083877;28;31870;-76
2021/04/18 07:26:42;;;;;;;22.95;7.53;;;;;;;;;;5083654;28;32041;-75
2021/04/18 07:29:13;;;;;;;25.23;7.28;;;;;;;;;;5084022;28;33511;-75
2021/04/18 07:31:39;;;;;;;16.38;8.57;;;;;;;;;;5065830;28;30970;-75
2021/04/18 07:34:07;;;;;;;20.55;8.13;;;;;;;;;;5084106;28;32120;-76
2021/04/18 07:36:33;;;;;;;18.15;8.20;;;;;;;;;;5084004;28;31893;-77
2021/04/18 07:38:59;;;;;;;17.73;7.30;;;;;;;;;;5084044;28;32617;-82
2021/04/18 07:41:25;;;;;;;22.65;7.53;;;;;;;;;;5084201;28;32356;-78
2021/04/18 07:43:51;;;;;;;13.50;6.28;;;;;;;;;;5083864;28;32076;-81
2021/04/18 07:46:18;;;;;;;25.45;8.68;;;;;;;;;;5083438;28;32981;-74
2021/04/18 07:48:44;;;;;;;22.67;7.63;;;;;;;;;;5083851;28;33535;-83
2021/04/18 07:51:09;;;;;;;18.05;7.88;;;;;;;;;;5083866;28;32268;-73
2021/04/18 07:53:36;;;;;;;26.70;7.65;;;;;;;;;;5083940;28;32010;-76
2021/04/18 07:56:06;;;;;;;17.88;7.55;;;;;;;;;;5083732;28;31947;-76
2021/04/18 07:58:32;;;;;;;19.98;9.15;;;;;;;;;;5083167;28;32555;-76
2021/04/18 08:00:59;;;;;;;17.45;7.15;;;;;;;;;;5083578;28;33008;-75
2021/04/18 08:03:25;;;;;;;15.13;6.63;;;;;;;;;;5083661;28;32105;-74
2021/04/18 08:05:51;;;;;;;24.15;8.15;;;;;;;;;;5083511;28;32065;-75
2021/04/18 08:08:16;;;;;;;16.20;6.68;;;;;;;;;;5083517;28;32645;-77
2021/04/18 08:10:49;;;;;;;17.48;6.80;;;;;;;;;;5083121;28;32206;-72
2021/04/18 08:13:20;;;;;;;17.05;7.25;;;;;;;;;;5083045;28;31830;-74
2021/04/18 08:15:45;;;;;;;17.17;5.85;;;;;;;;;;5082446;28;32119;-73
2021/04/18 08:18:13;;;;;;;13.23;4.70;;;;;;;;;;5082530;28;32619;-71
2021/04/18 08:20:43;;;;;;;17.17;6.03;;;;;;;;;;5082524;28;32373;-75
2021/04/18 08:23:17;;;;;;;17.95;6.65;;;;;;;;;;5082150;28;31880;-76
2021/04/18 08:26:01;;;;;;;15.43;6.32;;;;;;;;;;5082693;28;32096;-75
2021/04/18 08:28:27;;;;;;;14.52;5.05;;;;;;;;;;5083023;28;32678;-75
2021/04/18 08:30:59;;;;;;;12.45;4.53;;;;;;;;;;5083092;28;32272;-73
2021/04/18 08:33:41;;;;;;;13.07;4.63;;;;;;;;;;5082934;28;32074;-76
2021/04/18 08:36:14;;;;;;;13.25;6.00;;;;;;;;;;5083042;28;33027;-75
2021/04/18 08:38:40;;;;;;;18.60;6.82;;;;;;;;;;5082901;28;33603;-76
2021/04/18 08:41:10;;;;;;;19.02;6.30;;;;;;;;;;5082888;28;32388;-71
2021/04/18 08:43:36;;;;;;;19.33;6.35;;;;;;;;;;5082451;28;31970;-71
2021/04/18 08:46:01;;;;;;;17.60;7.25;;;;;;;;;;5082779;28;32112;-71
2021/04/18 08:48:27;;;;;;;22.73;8.10;;;;;;;;;;5082376;28;33498;-72
2021/04/18 08:50:58;;;;;;;23.42;7.32;;;;;;;;;;5082715;28;32473;-70
2021/04/18 08:53:24;;;;;;;19.98;6.75;;;;;;;;;;5082651;28;31818;-70
2021/04/18 08:55:52;;;;;;;18.73;7.88;;;;;;;;;;5082700;28;32048;-70
2021/04/18 08:58:31;;;;;;;19.38;9.38;;;;;;;;;;5082539;28;32621;-70
2021/04/18 09:01:03;;;;;;;30.70;10.02;;;;;;;;;;5082190;28;32348;-70
2021/04/18 09:03:28;;;;;;;22.05;9.60;;;;;;;;;;5081918;28;32001;-70
2021/04/18 09:06:30;;;;;;;24.27;10.15;;;;;;;;;;5082354;28;32587;-70
2021/04/18 09:08:56;;;;;;;27.52;11.73;;;;;;;;;;5081771;28;33582;-71
2021/04/18 09:11:21;;;;;;;30.13;10.98;;;;;;;;;;5082630;28;32358;-70
2021/04/18 09:13:54;;;;;;;30.35;10.38;;;;;;;;;;5082467;28;32704;-71
2021/04/18 09:16:23;;;;;;;23.43;8.53;;;;;;;;;;5082417;28;32148;-70
2021/04/18 09:18:49;;;;;;;23.58;8.65;;;;;;;;;;5082544;28;32439;-70
2021/04/18 09:21:15;;;;;;;18.98;7.28;;;;;;;;;;5082563;28;32977;-73
2021/04/18 09:23:57;;;;;;;18.48;8.10;;;;;;;;;;5082549;28;32960;-71
2021/04/18 09:26:23;;;;;;;18.40;7.95;;;;;;;;;;5083588;28;31933;-73
2021/04/18 09:29:07;;;;;;;17.95;8.68;;;;;;;;;;5088939;28;32683;-74
2021/04/18 09:31:33;;;;;;;18.42;8.30;;;;;;;;;;5087464;28;32420;-71
2021/04/18 09:34:05;;;;;;;22.45;9.15;;;;;;;;;;5082386;28;31994;-72
2021/04/18 09:36:31;;;;;;;17.98;8.35;;;;;;;;;;5082442;28;32020;-73
2021/04/18 09:38:58;;;;;;;19.58;8.15;;;;;;;;;;5081318;28;32019;-73
2021/04/18 09:41:26;;;;;;;12.65;6.13;;;;;;;;;;5082367;28;32263;-74
2021/04/18 09:43:56;;;;;;;22.33;7.75;;;;;;;;;;5082080;28;32012;-75
2021/04/18 09:46:21;;;;;;;16.27;7.07;;;;;;;;;;5082049;28;37343;-72
2021/04/18 09:49:00;;;;;;;15.93;6.13;;;;;;;;;;5081726;28;32607;-71
2021/04/18 09:51:26;;;;;;;14.73;6.95;;;;;;;;;;5081686;28;32413;-73
2021/04/18 09:54:04;;;;;;;19.85;6.43;;;;;;;;;;5082658;28;31983;-74
2021/04/18 09:56:30;;;;;;;9.95;5.25;;;;;;;;;;5082213;28;31899;-76
2021/04/18 09:59:14;;;;;;;12.98;6.10;;;;;;;;;;5082184;28;32639;-76
2021/04/18 10:01:41;;;;;;;;;;;;;;;;;;5080039;28;32309;-76
2021/04/18 10:04:25;;;;;;;20.52;6.00;;;;;;;;;;5081514;28;31934;-76
2021/04/18 10:06:51;;;;;;;15.27;5.38;;;;;;;;;;5081591;28;37129;-76
2021/04/18 10:09:17;;;;;;;12.02;5.43;;;;;;;;;;5081321;28;33116;-72
2021/04/18 10:11:59;;;;;;;11.32;5.82;;;;;;;;;;5080039;28;31301;-73
2021/04/18 10:14:24;;;;;;;11.57;5.57;;;;;;;;;;5081508;28;32931;-74
2021/04/18 10:16:50;;;;;;;10.02;4.05;;;;;;;;;;5080985;28;32367;-74
2021/04/18 10:19:16;;;;;;;8.80;3.67;;;;;;;;;;5081374;28;33183;-75
2021/04/18 10:21:43;;;;;;;10.75;4.32;;;;;;;;;;5079859;28;30779;-74
2021/04/18 10:24:29;;;;;;;12.40;4.68;;;;;;;;;;5081368;28;31992;-75
2021/04/18 10:26:55;;;;;;;7.10;2.92;;;;;;;;;;5080710;28;31797;-71
2021/04/18 10:29:23;;;;;;;9.35;3.67;;;;;;;;;;5079962;28;31827;-70
2021/04/18 10:31:49;;;;;;;9.27;4.45;;;;;;;;;;5079415;28;32417;-70
2021/04/18 10:34:15;;;;;;;8.07;3.83;;;;;;;;;;5080556;28;31945;-71
2021/04/18 10:36:41;;;;;;;11.27;4.55;;;;;;;;;;5080331;28;32143;-70
2021/04/18 10:39:06;;;;;;;10.48;4.28;;;;;;;;;;5080260;28;33542;-70
2021/04/18 10:41:32;;;;;;;11.30;4.60;;;;;;;;;;5080698;28;32829;-71
2021/04/18 10:43:58;;;;;;;11.07;4.22;;;;;;;;;;5080335;28;32006;-71
2021/04/18 10:46:23;;;;;;;13.75;4.85;;;;;;;;;;5080142;28;32068;-72
2021/04/18 10:48:49;;;;;;;14.75;4.78;;;;;;;;;;5080409;28;33379;-72
2021/04/18 10:51:15;;;;;;;8.85;3.70;;;;;;;;;;5080213;28;32295;-70
2021/04/18 10:53:40;;;;;;;12.25;4.28;;;;;;;;;;5080584;28;32839;-72
2021/04/18 10:56:06;;;;;;;11.38;4.60;;;;;;;;;;5080765;28;32110;-72
2021/04/18 10:58:32;;;;;;;9.82;4.63;;;;;;;;;;5080919;28;33219;-71
2021/04/18 11:00:57;;;;;;;11.13;4.30;;;;;;;;;;5080352;28;33245;-70
2021/04/18 11:03:23;;;;;;;10.07;3.55;;;;;;;;;;5080704;28;32097;-70
2021/04/18 11:05:50;;;;;;;15.52;4.85;;;;;;;;;;5080037;28;33063;-70
2021/04/18 11:08:17;;;;;;;8.27;3.40;;;;;;;;;;5080175;28;32532;-70
2021/04/18 11:10:43;;;;;;;9.23;2.70;;;;;;;;;;5080158;28;33373;-71
2021/04/18 11:13:09;;;;;;;8.73;4.18;;;;;;;;;;5080310;28;31943;-71
2021/04/18 11:15:34;;;;;;;3.28;1.67;;;;;;;;;;5080139;28;31567;-71
2021/04/18 11:18:00;;;;;;;10.63;4.60;;;;;;;;;;5079990;28;32529;-71
2021/04/18 11:20:26;;;;;;;16.70;5.22;;;;;;;;;;5080270;28;32436;-70
2021/04/18 11:22:52;;;;;;;13.70;5.35;;;;;;;;;;5080067;28;33009;-70
2021/04/18 11:25:18;;;;;;;14.27;5.30;;;;;;;;;;5080318;28;32907;-71
2021/04/18 11:27:43;;;;;;;12.63;4.85;;;;;;;;;;5079366;28;33677;-71
2021/04/18 11:30:11;;;;;;;13.60;4.45;;;;;;;;;;5079819;28;32236;-72
2021/04/18 11:32:37;;;;;;;13.55;5.00;;;;;;;;;;5079973;28;32013;-72
2021/04/18 11:35:06;;;;;;;4.88;2.40;;;;;;;;;;5080153;28;31715;-71
2021/04/18 11:37:32;;;;;;;14.68;5.05;;;;;;;;;;5079914;28;32981;-72
2021/04/18 11:39:58;;;;;;;14.02;4.78;;;;;;;;;;5080222;28;32729;-71
2021/04/18 11:42:24;;;;;;;17.83;4.93;;;;;;;;;;5079822;28;32916;-71
2021/04/18 11:44:49;;;;;;;10.95;4.05;;;;;;;;;;5079974;28;31659;-71
2021/04/18 11:47:15;;;;;;;10.18;3.58;;;;;;;;;;5079750;28;32496;-71
2021/04/18 11:49:41;;;;;;;7.25;3.88;;;;;;;;;;5077502;28;32606;-72
2021/04/18 11:52:06;;;;;;;9.88;3.53;;;;;;;;;;5079970;28;32054;-73
2021/04/18 11:54:32;;;;;;;12.43;3.97;;;;;;;;;;5079324;28;32809;-72
2021/04/18 11:56:58;;;;;;;6.60;2.50;;;;;;;;;;5079369;28;33256;-71
2021/04/18 11:59:23;;;;;;;10.38;3.65;;;;;;;;;;5083454;28;32091;-72
2021/04/18 12:01:49;;;;;;;6.90;3.03;;;;;;;;;;5080566;28;31981;-71
2021/04/18 12:04:15;;;;;;;11.65;3.72;;;;;;;;;;5083338;28;32069;-71
2021/04/18 12:06:40;;;;;;;15.57;3.88;;;;;;;;;;5083188;28;32644;-72
2021/04/18 12:09:06;;;;;;;10.43;3.47;;;;;;;;;;5082339;28;32836;-71
2021/04/18 12:11:34;;;;;;;9.85;3.45;;;;;;;;;;5080638;28;32158;-70
2021/04/18 12:14:00;;;;;;;8.63;4.18;;;;;;;;;;5080336;28;32014;-71
2021/04/18 12:16:26;;;;;;;13.63;3.63;;;;;;;;;;5080634;28;32680;-71
2021/04/18 12:18:52;;;;;;;5.88;3.38;;;;;;;;;;5080615;28;32571;-72
2021/04/18 12:21:17;;;;;;;9.77;3.58;;;;;;;;;;5082015;28;33000;-72
2021/04/18 12:23:43;;;;;;;8.60;3.90;;;;;;;;;;5082215;28;30859;-72
2021/04/18 12:26:09;;;;;;;12.80;4.07;;;;;;;;;;5081422;28;32672;-71
2021/04/18 12:28:35;;;;;;;9.18;3.63;;;;;;;;;;5082998;28;31963;-72
2021/04/18 12:31:00;;;;;;;10.65;3.47;;;;;;;;;;5082585;28;32857;-71
2021/04/18 12:33:27;;;;;;;11.93;3.83;;;;;;;;;;5082688;28;32065;-71
2021/04/18 12:35:53;;;;;;;9.40;2.88;;;;;;;;;;5082699;28;33563;-71
2021/04/18 12:38:19;;;;;;;13.57;3.35;;;;;;;;;;5083041;28;32271;-70
2021/04/18 12:40:45;;;;;;;8.48;3.42;;;;;;;;;;5082772;28;32072;-75
2021/04/18 12:43:12;;;;;;;12.07;4.00;;;;;;;;;;5082944;28;33071;-74
2021/04/18 12:45:37;;;;;;;13.10;4.22;;;;;;;;;;5082909;28;32606;-73
2021/04/18 12:48:03;;;;;;;11.07;4.70;;;;;;;;;;5082693;28;32137;-71
2021/04/18 12:50:29;;;;;;;8.88;3.92;;;;;;;;;;5081945;28;31741;-74
2021/04/18 12:52:55;;;;;;;10.13;4.40;;;;;;;;;;5082762;28;32110;-74
2021/04/18 12:55:21;;;;;;;10.82;4.45;;;;;;;;;;5082507;28;32616;-72
2021/04/18 12:57:46;;;;;;;13.77;4.50;;;;;;;;;;5079872;28;32177;-71
2021/04/18 13:00:14;;;;;;;14.10;4.82;;;;;;;;;;5082923;28;31999;-71
2021/04/18 13:02:39;;;;;;;11.57;3.47;;;;;;;;;;5082349;28;31831;-72
2021/04/18 13:05:06;;;;;;;9.55;3.88;;;;;;;;;;5081662;28;32057;-70
2021/04/18 13:07:32;;;;;;;13.30;4.32;;;;;;;;;;5081434;28;32905;-71
2021/04/18 13:10:04;;;;;;;11.10;4.82;;;;;;;;;;5079652;28;32008;-72
2021/04/18 13:12:30;;;;;;;17.55;4.93;;;;;;;;;;5079568;28;32986;-72
2021/04/18 13:14:57;;;;;;;12.43;3.88;;;;;;;;;;5081847;28;32501;-70
2021/04/18 13:17:23;;;;;;;8.90;3.83;;;;;;;;;;5082104;28;31902;-73
2021/04/18 13:19:49;;;;;;;8.05;3.97;;;;;;;;;;5082239;28;31988;-71
2021/04/18 13:22:14;;;;;;;14.55;4.25;;;;;;;;;;5082385;28;32632;-70
2021/04/18 13:24:40;;;;;;;15.45;4.88;;;;;;;;;;5079501;28;32641;-71
2021/04/18 13:27:06;;;;;;;16.00;5.32;;;;;;;;;;5080706;28;32294;-70
2021/04/18 13:29:33;;;;;;;11.32;4.68;;;;;;;;;;5081950;28;32929;-71
2021/04/18 13:31:58;;;;;;;12.65;4.60;;;;;;;;;;5079292;28;32017;-71
2021/04/18 13:34:24;;;;;;;9.60;3.95;;;;;;;;;;5081876;28;32647;-71
2021/04/18 13:36:50;;;;;;;12.85;5.07;;;;;;;;;;5081309;28;33064;-72
2021/04/18 13:39:15;;;;;;;8.73;3.58;;;;;;;;;;5080633;28;31918;-72
2021/04/18 13:41:41;;;;;;;11.10;4.28;;;;;;;;;;5079144;28;32626;-72
2021/04/18 13:44:07;;;;;;;10.13;4.20;;;;;;;;;;5081723;28;32618;-74
2021/04/18 13:46:33;;;;;;;13.27;4.70;;;;;;;;;;5081929;28;32327;-74
2021/04/18 13:49:00;;;;;;;13.55;4.18;;;;;;;;;;5082569;28;31983;-73
2021/04/18 13:51:26;;;;;;;14.02;4.75;;;;;;;;;;5081036;28;32091;-74
2021/04/18 13:53:52;;;;;;;10.00;4.05;;;;;;;;;;5085494;28;33611;-72
2021/04/18 13:56:17;;;;;;;11.45;4.20;;;;;;;;;;5084773;28;32280;-73
2021/04/18 13:58:43;;;;;;;3.80;1.33;;;;;;;;;;5083218;28;33144;-73
2021/04/18 14:01:09;;;;;;;8.93;2.92;;;;;;;;;;5079056;28;32341;-73
2021/04/18 14:03:34;;;;;;;12.80;4.50;;;;;;;;;;5078627;28;32576;-72
2021/04/18 14:06:00;;;;;;;9.93;4.90;;;;;;;;;;5081138;28;32875;-75
2021/04/18 14:08:26;;;;;;;14.55;4.85;;;;;;;;;;5078627;28;31952;-75
2021/04/18 14:10:51;;;;;;;14.18;5.15;;;;;;;;;;5081304;28;32039;-73
2021/04/18 14:13:17;;;;;;;10.43;4.00;;;;;;;;;;5079501;28;30879;-73
2021/04/18 14:15:43;;;;;;;11.60;4.80;;;;;;;;;;5078477;28;33246;-74
2021/04/18 14:18:09;;;;;;;12.02;5.25;;;;;;;;;;5080848;28;32077;-75
2021/04/18 14:20:34;;;;;;;22.27;5.07;;;;;;;;;;5079725;28;31951;-74
2021/04/18 14:23:00;;;;;;;14.52;5.35;;;;;;;;;;5081096;28;33607;-75
2021/04/18 14:25:26;;;;;;;13.77;5.30;;;;;;;;;;5078381;28;32270;-73
2021/04/18 14:27:54;;;;;;;17.02;4.88;;;;;;;;;;5080515;28;31979;-74
2021/04/18 14:30:20;;;;;;;14.23;5.90;;;;;;;;;;5080850;28;32340;-76
2021/04/18 14:32:46;;;;;;;14.32;5.65;;;;;;;;;;5080864;28;32734;-72